createdAt,value
2022-11-28T16:25:25.740Z,15.20
2022-11-28T16:28:35.038Z,15.13
2022-11-28T16:31:37.394Z,15.95
2022-11-28T16:34:48.515Z,14.00
2022-11-28T16:37:50.768Z,12.38
2022-11-28T16:41:00.781Z,11.15
2022-11-28T16:44:06.228Z,10.90
2022-11-28T16:47:25.678Z,11.75
2022-11-28T16:50:28.417Z,10.32
2022-11-28T16:53:50.979Z,11.32
2022-11-28T16:56:57.749Z,13.05
2022-11-28T17:00:00.027Z,13.00
2022-11-28T17:03:11.612Z,14.35
2022-11-28T17:06:22.412Z,15.98
2022-11-28T17:09:24.626Z,14.05
2022-11-28T17:12:29.658Z,14.88
2022-11-28T17:15:31.768Z,14.35
2022-11-28T17:18:33.939Z,14.70
2022-11-28T17:21:57.847Z,15.02
2022-11-28T17:25:01.660Z,14.27
2022-11-28T17:28:05.370Z,14.07
2022-11-28T17:31:10.515Z,13.63
2022-11-28T17:34:23.237Z,13.23
2022-11-28T17:37:25.358Z,13.20
2022-11-28T17:40:33.441Z,14.02
2022-11-28T17:43:39.022Z,14.15
2022-11-28T17:46:42.089Z,13.95
2022-11-28T17:49:46.402Z,12.75
2022-11-28T17:52:49.071Z,13.02
2022-11-28T17:55:59.044Z,13.65
2022-11-28T17:59:02.486Z,11.52
2022-11-28T18:02:04.992Z,12.15
2022-11-28T18:05:08.599Z,12.30
2022-11-28T18:08:10.791Z,12.50
2022-11-28T18:11:14.539Z,11.75
2022-11-28T18:14:19.678Z,11.63
2022-11-28T18:17:22.718Z,10.85
2022-11-28T18:20:28.730Z,11.98
2022-11-28T18:23:31.419Z,10.57
2022-11-28T18:26:33.787Z,12.05
2022-11-28T18:29:35.983Z,12.00
2022-11-28T18:32:38.503Z,11.88
2022-11-28T18:35:40.958Z,12.70
2022-11-28T18:38:45.284Z,13.90
2022-11-28T18:41:47.680Z,14.85
2022-11-28T18:44:50.381Z,15.77
2022-11-28T18:47:55.953Z,16.25
2022-11-28T18:51:02.322Z,16.63
2022-11-28T18:54:05.674Z,17.23
2022-11-28T18:57:09.419Z,16.85
2022-11-28T19:00:12.250Z,17.65
2022-11-28T19:03:15.059Z,17.23
2022-11-28T19:06:17.569Z,18.30
2022-11-28T22:16:29.582Z,14.55
2022-11-28T22:19:33.930Z,12.98
2022-11-28T22:22:36.120Z,12.18
2022-11-28T22:25:38.683Z,12.18
2022-11-28T22:28:41.736Z,12.95
2022-11-28T22:31:44.625Z,12.32
2022-11-28T22:34:46.950Z,11.73
2022-11-28T22:37:49.207Z,12.63
2022-11-28T22:40:51.360Z,12.48
2022-11-28T22:44:00.372Z,11.40
2022-11-28T22:47:02.894Z,11.00
2022-11-28T22:50:05.953Z,12.05
2022-11-28T22:53:08.593Z,12.05
2022-11-28T22:56:14.335Z,10.73
2022-11-28T22:59:17.397Z,12.57
2022-11-28T23:02:19.829Z,11.68
2022-11-28T23:05:22.639Z,11.38
2022-11-28T23:08:24.810Z,11.23
2022-11-28T23:11:31.046Z,11.18
2022-11-28T23:14:34.130Z,10.68
2022-11-28T23:17:36.657Z,11.82
2022-11-28T23:20:38.945Z,11.10
2022-11-28T23:23:41.449Z,12.07
2022-11-28T23:26:44.082Z,11.13
2022-11-28T23:29:47.745Z,12.82
2022-11-28T23:32:49.994Z,12.13
2022-11-28T23:35:53.035Z,11.40
2022-11-28T23:38:57.243Z,11.95
2022-11-28T23:42:00.062Z,10.45
2022-11-28T23:45:02.298Z,11.57
2022-11-28T23:48:04.746Z,12.02
2022-11-28T23:51:07.508Z,11.60
2022-11-28T23:54:10.984Z,12.98
2022-11-28T23:57:13.155Z,11.75
